createdAt,value
2022-12-20T00:02:14.339Z,63.30
2022-12-20T00:04:43.984Z,63.30
2022-12-20T00:07:12.129Z,63.30
2022-12-20T00:09:40.364Z,63.30
2022-12-20T00:12:08.540Z,63.30
2022-12-20T00:14:36.620Z,63.30
2022-12-20T00:17:04.745Z,63.30
2022-12-20T00:19:32.865Z,63.30
2022-12-20T00:22:02.405Z,63.30
2022-12-20T00:24:30.552Z,63.30
2022-12-20T00:26:58.705Z,63.30
2022-12-20T00:29:26.819Z,63.30
2022-12-20T00:31:55.093Z,63.30
2022-12-20T00:34:23.256Z,63.30
2022-12-20T00:36:51.396Z,63.30
2022-12-20T00:39:20.962Z,63.30
2022-12-20T00:41:49.104Z,63.30
2022-12-20T00:44:17.208Z,63.30
2022-12-20T00:46:45.376Z,63.20
2022-12-20T00:49:13.565Z,63.20
2022-12-20T00:51:41.748Z,63.20
2022-12-20T00:54:09.899Z,63.30
2022-12-20T00:56:39.419Z,63.20
2022-12-20T00:59:07.563Z,63.20
2022-12-20T01:01:35.862Z,63.20
2022-12-20T01:04:04.683Z,63.20
2022-12-20T01:06:33.039Z,63.20
2022-12-20T01:09:01.824Z,63.20
2022-12-20T01:11:31.759Z,63.20
2022-12-20T01:14:03.557Z,63.10
2022-12-20T01:16:34.009Z,63.20
2022-12-20T01:19:02.622Z,63.20
2022-12-20T01:21:31.045Z,63.80
2022-12-20T01:23:59.452Z,63.20
2022-12-20T01:26:29.723Z,63.20
2022-12-20T01:28:59.229Z,63.20
2022-12-20T01:31:30.379Z,63.20
2022-12-20T01:33:59.289Z,63.20
2022-12-20T01:36:29.417Z,63.20
2022-12-20T01:38:58.879Z,63.20
2022-12-20T01:41:27.732Z,63.20
2022-12-20T01:43:58.421Z,63.20
2022-12-20T01:46:29.678Z,63.20
2022-12-20T01:49:01.603Z,63.20
2022-12-20T01:51:33.138Z,63.20
2022-12-20T01:54:05.752Z,63.20
2022-12-20T01:56:34.091Z,63.20
2022-12-20T01:59:03.093Z,63.20
2022-12-20T02:01:32.695Z,63.10
2022-12-20T02:04:01.109Z,63.20
2022-12-20T02:06:29.496Z,63.10
2022-12-20T02:09:01.825Z,63.10
2022-12-20T02:11:45.650Z,63.10
2022-12-20T02:14:21.053Z,63.10
2022-12-20T02:16:56.592Z,63.10
2022-12-20T02:19:51.715Z,63.10
2022-12-20T02:22:30.966Z,63.10
2022-12-20T02:25:15.967Z,63.10
2022-12-20T02:28:01.246Z,63.10
2022-12-20T02:30:35.663Z,63.20
2022-12-20T02:33:06.341Z,63.10
2022-12-20T02:35:36.700Z,63.10
2022-12-20T02:38:24.676Z,63.10
2022-12-20T02:40:56.081Z,63.10
2022-12-20T02:43:43.541Z,63.10
2022-12-20T02:46:14.646Z,63.10
2022-12-20T02:48:43.107Z,63.10
2022-12-20T02:51:12.791Z,63.10
2022-12-20T02:53:42.996Z,63.10
2022-12-20T02:56:15.952Z,63.10
2022-12-20T02:58:49.838Z,63.10
2022-12-20T03:01:24.167Z,63.10
2022-12-20T03:03:54.512Z,63.10
2022-12-20T03:06:22.957Z,63.40
2022-12-20T03:08:51.127Z,63.10
2022-12-20T03:11:20.376Z,63.10
2022-12-20T03:13:48.500Z,63.00
2022-12-20T03:16:16.921Z,63.10
2022-12-20T03:18:46.513Z,63.10
2022-12-20T03:21:14.916Z,63.10
2022-12-20T03:23:43.300Z,63.10
2022-12-20T03:26:11.428Z,63.10
2022-12-20T03:28:39.557Z,63.10
2022-12-20T03:31:07.882Z,63.10
2022-12-20T03:33:36.130Z,63.10
2022-12-20T03:36:06.082Z,63.10
2022-12-20T03:38:34.184Z,63.10
2022-12-20T03:41:02.286Z,63.00
2022-12-20T03:43:30.404Z,63.10
2022-12-20T03:45:58.593Z,63.00
2022-12-20T03:48:26.788Z,63.10
2022-12-20T03:50:54.907Z,63.00
2022-12-20T03:53:24.515Z,63.10
2022-12-20T03:55:52.783Z,63.00
2022-12-20T03:58:20.946Z,63.10
2022-12-20T04:00:49.142Z,63.10
2022-12-20T04:03:17.460Z,63.10
2022-12-20T04:05:45.798Z,63.00
2022-12-20T04:08:14.026Z,63.00
2022-12-20T04:10:57.446Z,63.00
2022-12-20T04:13:25.774Z,63.00
2022-12-20T04:15:59.813Z,63.00
2022-12-20T04:18:28.632Z,63.00
2022-12-20T04:20:57.182Z,63.10
2022-12-20T04:23:25.332Z,63.10
2022-12-20T04:25:54.846Z,63.10
2022-12-20T04:28:23.136Z,63.20
2022-12-20T04:30:51.319Z,63.20
2022-12-20T04:33:19.556Z,63.20
2022-12-20T04:35:47.721Z,63.20
2022-12-20T04:38:16.042Z,63.20
2022-12-20T04:40:44.250Z,63.20
2022-12-20T04:43:13.743Z,63.20
2022-12-20T04:45:42.042Z,63.30
2022-12-20T04:48:46.255Z,63.30
2022-12-20T04:50:58.387Z,63.30
2022-12-20T04:53:43.978Z,63.30
2022-12-20T04:56:12.106Z,63.40
2022-12-20T04:58:41.726Z,63.40
2022-12-20T05:01:09.983Z,63.40
2022-12-20T05:03:38.783Z,63.50
2022-12-20T05:06:07.977Z,63.50
2022-12-20T05:08:36.425Z,63.50
2022-12-20T05:11:04.647Z,63.50
2022-12-20T05:13:32.884Z,63.50
2022-12-20T05:16:02.846Z,63.50
2022-12-20T05:18:31.264Z,63.50
2022-12-20T05:21:17.842Z,63.50
2022-12-20T05:24:06.296Z,63.50
2022-12-20T05:26:37.716Z,63.50
2022-12-20T05:29:06.453Z,63.50
2022-12-20T05:31:36.054Z,63.50
2022-12-20T05:34:04.272Z,63.50
2022-12-20T05:36:32.417Z,63.50
2022-12-20T05:39:04.307Z,63.50
2022-12-20T05:41:33.363Z,63.50
2022-12-20T05:44:01.930Z,63.50
2022-12-20T05:46:30.158Z,63.50
2022-12-20T05:48:59.834Z,63.40
2022-12-20T05:51:28.046Z,63.40
2022-12-20T05:53:56.208Z,63.40
2022-12-20T05:56:24.402Z,63.40
2022-12-20T05:58:52.585Z,63.40
2022-12-20T06:01:20.811Z,63.40
2022-12-20T06:03:51.143Z,63.40
2022-12-20T06:06:20.791Z,63.30
2022-12-20T06:08:49.311Z,63.30
2022-12-20T06:11:17.456Z,63.30
2022-12-20T06:13:45.655Z,63.30
2022-12-20T06:16:13.812Z,63.30
2022-12-20T06:18:41.998Z,63.30
2022-12-20T06:21:10.620Z,63.30
2022-12-20T06:23:40.143Z,63.30
2022-12-20T06:26:09.514Z,63.30
2022-12-20T06:28:42.718Z,63.30
2022-12-20T06:31:11.933Z,63.30
2022-12-20T06:33:40.117Z,63.30
2022-12-20T06:36:08.714Z,63.30
2022-12-20T06:38:36.972Z,63.30
2022-12-20T06:41:06.773Z,63.20
2022-12-20T06:43:34.890Z,63.30
2022-12-20T06:46:03.063Z,63.30
2022-12-20T06:48:31.267Z,63.30
2022-12-20T06:50:59.801Z,63.30
2022-12-20T06:53:28.034Z,63.30
2022-12-20T06:55:56.206Z,63.30
2022-12-20T06:58:25.794Z,63.30
2022-12-20T07:00:54.155Z,63.30
2022-12-20T07:03:22.463Z,63.30
2022-12-20T07:05:53.386Z,63.30
2022-12-20T07:08:21.840Z,63.30
2022-12-20T07:10:52.634Z,63.40
2022-12-20T07:13:20.829Z,63.30
2022-12-20T07:15:50.365Z,63.30
2022-12-20T07:18:18.579Z,63.30
2022-12-20T07:20:46.741Z,63.20
2022-12-20T07:23:14.910Z,63.20
2022-12-20T07:25:43.146Z,63.20
2022-12-20T07:28:11.748Z,63.20
2022-12-20T07:30:39.901Z,63.20
2022-12-20T07:33:09.488Z,63.20
2022-12-20T07:35:37.630Z,63.10
2022-12-20T07:38:05.787Z,63.20
2022-12-20T07:40:34.097Z,63.10
2022-12-20T07:43:02.321Z,63.10
2022-12-20T07:45:31.516Z,63.10
2022-12-20T07:48:04.828Z,63.10
2022-12-20T07:50:39.715Z,63.10
2022-12-20T07:53:10.695Z,63.30
2022-12-20T07:55:42.221Z,63.30
2022-12-20T07:58:12.619Z,63.40
2022-12-20T08:00:41.001Z,63.30
2022-12-20T08:03:14.246Z,63.30
2022-12-20T08:05:48.806Z,63.30
2022-12-20T08:08:17.937Z,63.30
2022-12-20T08:10:46.479Z,63.40
2022-12-20T08:13:15.374Z,63.70
2022-12-20T08:15:43.838Z,63.70
2022-12-20T08:18:11.982Z,63.70
2022-12-20T08:20:40.159Z,63.80
2022-12-20T08:23:09.920Z,63.80
2022-12-20T08:25:41.767Z,63.80
2022-12-20T08:28:10.514Z,64.00
2022-12-20T08:30:39.047Z,64.00
2022-12-20T08:33:07.367Z,64.00
2022-12-20T08:35:35.666Z,64.00
2022-12-20T08:38:03.912Z,64.00
2022-12-20T08:40:33.492Z,64.10
2022-12-20T08:43:06.734Z,64.10
2022-12-20T08:45:38.207Z,64.20
2022-12-20T08:48:06.590Z,64.20
2022-12-20T08:50:34.892Z,64.20
2022-12-20T08:53:03.726Z,64.20
2022-12-20T08:55:33.429Z,64.30
2022-12-20T08:58:01.584Z,64.20
2022-12-20T09:00:29.828Z,64.20
2022-12-20T09:02:58.224Z,64.30
2022-12-20T09:05:26.552Z,64.30
2022-12-20T09:07:55.284Z,64.30
2022-12-20T09:10:23.449Z,64.30
2022-12-20T09:12:53.016Z,64.30
2022-12-20T09:15:21.174Z,64.20
2022-12-20T09:17:49.280Z,64.20
2022-12-20T09:20:17.675Z,64.90
2022-12-20T09:22:45.842Z,64.20
2022-12-20T09:25:14.151Z,64.20
2022-12-20T09:27:42.404Z,64.20
2022-12-20T09:30:12.854Z,64.20
2022-12-20T09:32:41.061Z,64.20
2022-12-20T09:35:09.631Z,64.20
2022-12-20T09:37:37.757Z,64.20
2022-12-20T09:40:06.955Z,64.30
2022-12-20T09:42:35.159Z,64.20
2022-12-20T09:45:09.147Z,64.20
2022-12-20T09:47:39.302Z,64.30
2022-12-20T09:50:08.654Z,64.30
2022-12-20T09:52:54.701Z,64.30
2022-12-20T09:55:32.789Z,64.20
2022-12-20T09:58:28.631Z,64.20
2022-12-20T10:00:57.994Z,64.30
2022-12-20T10:03:34.733Z,64.20
2022-12-20T10:06:12.880Z,64.30
2022-12-20T10:08:50.574Z,64.30
2022-12-20T10:11:50.402Z,64.30
2022-12-20T10:14:34.481Z,64.30
2022-12-20T10:17:06.438Z,64.30
2022-12-20T10:19:56.503Z,64.30
2022-12-20T10:22:28.708Z,64.30
2022-12-20T10:25:02.137Z,64.30
2022-12-20T10:27:30.356Z,64.30
2022-12-20T10:29:58.614Z,64.30
2022-12-20T10:32:29.326Z,64.30
2022-12-20T10:35:17.570Z,64.30
2022-12-20T10:38:14.039Z,64.40
2022-12-20T10:43:43.686Z,64.30
2022-12-20T10:46:13.275Z,64.30
2022-12-20T10:48:42.982Z,64.30
2022-12-20T10:51:18.571Z,64.30
2022-12-20T10:53:56.468Z,64.20
2022-12-20T10:56:27.563Z,64.30
2022-12-20T10:59:00.504Z,64.20
2022-12-20T11:01:32.644Z,64.30
2022-12-20T11:04:03.465Z,64.30
2022-12-20T11:06:43.782Z,64.20
2022-12-20T11:09:31.688Z,64.20
2022-12-20T11:12:06.388Z,64.20
2022-12-20T11:14:39.541Z,64.10
2022-12-20T11:17:22.553Z,64.10
2022-12-20T11:20:02.423Z,64.10
2022-12-20T11:22:44.872Z,64.10
2022-12-20T11:25:30.147Z,64.10
2022-12-20T11:28:13.670Z,64.10
2022-12-20T11:30:50.135Z,64.10
2022-12-20T11:33:42.322Z,64.10
2022-12-20T11:36:18.832Z,64.10
2022-12-20T11:38:53.976Z,64.20
2022-12-20T11:41:33.145Z,64.70
2022-12-20T11:44:25.344Z,65.00
2022-12-20T11:47:11.605Z,64.80
2022-12-20T11:50:13.596Z,64.50
2022-12-20T11:52:48.008Z,64.20
2022-12-20T11:55:24.797Z,64.20
2022-12-20T12:00:54.947Z,63.90
2022-12-20T12:03:30.483Z,63.70
2022-12-20T12:06:03.003Z,63.70
2022-12-20T12:08:40.013Z,63.60
2022-12-20T12:11:55.660Z,63.40
2022-12-20T12:14:06.712Z,63.40
2022-12-20T12:16:38.617Z,63.30
2022-12-20T12:19:11.637Z,63.30
2022-12-20T12:21:44.404Z,63.20
2022-12-20T12:24:24.707Z,63.10
2022-12-20T12:26:55.466Z,63.10
2022-12-20T12:29:23.830Z,63.00
2022-12-20T12:31:56.293Z,63.00
2022-12-20T12:34:38.404Z,62.90
2022-12-20T12:37:32.411Z,62.90
2022-12-20T12:40:37.830Z,62.90
2022-12-20T12:43:38.426Z,62.70
2022-12-20T12:46:14.687Z,62.80
2022-12-20T12:48:47.001Z,62.70
2022-12-20T12:51:16.636Z,62.70
2022-12-20T12:53:46.947Z,63.30
2022-12-20T12:56:44.903Z,62.50
2022-12-20T12:59:42.188Z,62.40
2022-12-20T13:02:50.309Z,62.30
2022-12-20T13:05:42.670Z,62.40
2022-12-20T13:08:18.400Z,62.50
2022-12-20T13:11:02.786Z,62.60
2022-12-20T13:13:31.170Z,62.60
2022-12-20T13:16:14.192Z,62.70
2022-12-20T13:19:04.877Z,62.70
2022-12-20T13:21:38.307Z,62.80
2022-12-20T13:24:55.019Z,62.80
2022-12-20T13:27:27.124Z,62.70
2022-12-20T13:29:59.826Z,62.70
2022-12-20T13:33:10.575Z,62.70
2022-12-20T13:35:56.119Z,62.70
2022-12-20T13:38:54.105Z,62.70
2022-12-20T13:41:41.605Z,62.70
2022-12-20T13:44:40.898Z,62.60
2022-12-20T13:47:32.873Z,62.60
2022-12-20T13:50:19.729Z,63.30
2022-12-20T13:52:50.050Z,62.60
2022-12-20T13:55:24.787Z,62.60
2022-12-20T13:57:53.884Z,62.60
2022-12-20T14:00:25.743Z,62.60
2022-12-20T14:02:55.020Z,62.60
2022-12-20T14:05:26.571Z,62.70
2022-12-20T14:08:01.006Z,62.70
2022-12-20T14:10:31.266Z,62.70
2022-12-20T14:12:59.628Z,62.80
2022-12-20T14:15:30.233Z,62.90
2022-12-20T14:17:59.013Z,63.00
2022-12-20T14:20:31.430Z,63.30
2022-12-20T14:23:06.531Z,63.50
2022-12-20T14:25:43.326Z,63.50
2022-12-20T14:28:29.895Z,63.30
2022-12-20T14:30:59.895Z,63.10
2022-12-20T14:33:32.369Z,63.00
2022-12-20T14:36:10.444Z,62.80
2022-12-20T14:38:41.428Z,62.70
2022-12-20T14:41:24.175Z,62.60
2022-12-20T14:43:57.837Z,62.50
2022-12-20T14:46:26.119Z,62.40
2022-12-20T14:49:10.855Z,62.30
2022-12-20T14:51:39.833Z,62.30
2022-12-20T14:54:47.824Z,62.30
2022-12-20T14:57:13.598Z,62.20
2022-12-20T14:59:41.811Z,62.20
2022-12-20T15:02:40.495Z,62.10
2022-12-20T15:05:10.998Z,62.00
2022-12-20T15:07:42.368Z,62.10
2022-12-20T15:10:12.004Z,62.00
2022-12-20T15:12:42.410Z,62.00
2022-12-20T15:15:28.726Z,61.90
2022-12-20T15:17:57.886Z,61.90
2022-12-20T15:20:26.045Z,61.90
2022-12-20T15:22:54.213Z,61.80
2022-12-20T15:25:23.830Z,61.80
2022-12-20T15:27:52.236Z,61.80
2022-12-20T15:30:20.624Z,61.80
2022-12-20T15:32:55.614Z,61.70
2022-12-20T15:35:24.923Z,61.70
2022-12-20T15:37:53.130Z,61.70
2022-12-20T15:40:21.308Z,61.70
2022-12-20T15:42:52.638Z,61.70
2022-12-20T15:45:29.195Z,61.60
2022-12-20T15:47:57.357Z,61.60
2022-12-20T15:50:25.501Z,61.50
2022-12-20T15:52:53.669Z,61.50
2022-12-20T15:55:21.760Z,61.50
2022-12-20T15:57:51.257Z,61.40
2022-12-20T16:00:20.118Z,61.40
2022-12-20T16:02:50.668Z,61.30
2022-12-20T16:05:19.136Z,61.30
2022-12-20T16:07:47.319Z,61.30
2022-12-20T16:10:15.916Z,61.30
2022-12-20T16:12:44.111Z,61.30
2022-12-20T16:15:21.280Z,61.30
2022-12-20T16:17:49.592Z,61.20
2022-12-20T16:20:17.939Z,61.20
2022-12-20T16:22:46.151Z,61.20
2022-12-20T16:25:26.175Z,61.20
2022-12-20T16:27:54.637Z,61.20
2022-12-20T16:30:24.369Z,61.30
2022-12-20T16:32:53.272Z,61.30
2022-12-20T16:35:30.417Z,61.20
2022-12-20T16:37:59.559Z,61.30
2022-12-20T16:40:30.248Z,61.30
2022-12-20T16:43:00.050Z,61.30
2022-12-20T16:45:31.113Z,61.40
2022-12-20T16:47:59.420Z,61.20
2022-12-20T16:50:28.927Z,61.20
2022-12-20T16:52:57.144Z,61.10
2022-12-20T16:55:27.285Z,61.10
2022-12-20T16:57:55.803Z,61.00
2022-12-20T17:00:25.956Z,61.00
2022-12-20T17:02:56.790Z,61.00
2022-12-20T17:05:28.720Z,60.90
2022-12-20T17:07:57.007Z,61.00
2022-12-20T17:10:26.208Z,60.90
2022-12-20T17:12:54.557Z,60.90
2022-12-20T17:15:25.074Z,60.80
2022-12-20T17:17:55.374Z,60.80
2022-12-20T17:20:24.835Z,60.80
2022-12-20T17:25:41.936Z,60.80
2022-12-20T17:28:10.068Z,60.80
2022-12-20T17:30:38.214Z,60.80
2022-12-20T17:33:07.695Z,60.80
2022-12-20T17:35:35.932Z,60.80
2022-12-20T17:38:06.957Z,60.80
2022-12-20T17:40:34.913Z,60.80
2022-12-20T17:43:03.048Z,60.80
2022-12-20T17:45:33.132Z,60.80
2022-12-20T17:48:01.375Z,60.70
2022-12-20T17:50:30.906Z,60.80
2022-12-20T17:52:59.052Z,60.80
2022-12-20T17:55:29.068Z,60.80
2022-12-20T17:57:57.517Z,60.70
2022-12-20T18:00:31.937Z,60.70
2022-12-20T18:03:06.905Z,60.80
2022-12-20T18:05:36.684Z,60.70
2022-12-20T18:08:04.929Z,60.70
2022-12-20T18:10:34.161Z,60.80
2022-12-20T18:13:02.312Z,60.70
2022-12-20T18:15:30.457Z,60.70
2022-12-20T18:17:58.574Z,60.70
2022-12-20T18:20:26.728Z,60.70
2022-12-20T18:22:56.235Z,60.70
2022-12-20T18:25:24.391Z,60.60
2022-12-20T18:27:52.545Z,60.70
2022-12-20T18:30:20.695Z,60.70
2022-12-20T18:32:48.776Z,60.70
2022-12-20T18:35:17.042Z,60.70
2022-12-20T18:37:45.121Z,60.60
2022-12-20T18:40:14.896Z,60.60
2022-12-20T18:42:42.992Z,60.60
2022-12-20T18:45:12.485Z,60.60
2022-12-20T18:47:40.731Z,60.60
2022-12-20T18:50:11.838Z,60.60
2022-12-20T18:52:42.401Z,60.60
2022-12-20T18:55:12.169Z,60.60
2022-12-20T18:57:41.613Z,60.60
2022-12-20T19:00:10.889Z,60.60
2022-12-20T19:02:39.102Z,60.60
2022-12-20T19:05:08.590Z,60.60
2022-12-20T19:07:36.689Z,60.60
2022-12-20T19:10:05.624Z,60.60
2022-12-20T19:12:35.627Z,60.50
2022-12-20T19:15:05.968Z,60.60
2022-12-20T19:17:34.089Z,60.50
2022-12-20T19:20:02.239Z,60.50
2022-12-20T19:22:30.378Z,60.50
2022-12-20T19:24:58.959Z,60.50
2022-12-20T19:27:27.093Z,60.60
2022-12-20T19:29:55.217Z,60.60
2022-12-20T19:32:24.825Z,60.60
2022-12-20T19:34:52.948Z,60.60
2022-12-20T19:37:21.055Z,60.60
2022-12-20T19:39:49.664Z,60.60
2022-12-20T19:42:25.468Z,60.60
2022-12-20T19:44:53.806Z,60.70
2022-12-20T19:47:21.981Z,60.70
2022-12-20T19:49:51.561Z,60.70
2022-12-20T19:52:26.462Z,60.70
2022-12-20T19:54:56.445Z,60.70
2022-12-20T19:57:24.778Z,60.70
2022-12-20T19:59:55.934Z,60.70
2022-12-20T20:02:24.784Z,60.70
2022-12-20T20:04:54.528Z,60.70
2022-12-20T20:07:22.761Z,60.70
2022-12-20T20:09:51.001Z,60.70
2022-12-20T20:12:19.493Z,60.70
2022-12-20T20:14:47.792Z,60.70
2022-12-20T20:17:15.886Z,60.70
2022-12-20T20:19:44.178Z,60.70
2022-12-20T20:22:19.194Z,60.70
2022-12-20T20:24:50.848Z,60.70
2022-12-20T20:27:19.053Z,60.70
2022-12-20T20:29:50.263Z,60.70
2022-12-20T20:32:18.518Z,60.70
2022-12-20T20:34:46.644Z,60.70
2022-12-20T20:37:16.197Z,60.70
2022-12-20T20:39:44.327Z,60.70
2022-12-20T20:42:15.895Z,60.70
2022-12-20T20:44:46.474Z,60.70
2022-12-20T20:47:14.568Z,60.60
2022-12-20T20:49:42.682Z,60.60
2022-12-20T20:52:11.715Z,60.70
2022-12-20T20:54:41.233Z,60.70
2022-12-20T20:57:09.358Z,60.70
2022-12-20T20:59:37.590Z,60.70
2022-12-20T21:02:05.879Z,60.60
2022-12-20T21:04:34.072Z,60.70
2022-12-20T21:07:02.200Z,60.70
2022-12-20T21:09:30.687Z,60.70
2022-12-20T21:12:00.288Z,60.70
2022-12-20T21:14:53.477Z,60.70
2022-12-20T21:17:16.728Z,60.70
2022-12-20T21:19:44.860Z,60.70
2022-12-20T21:22:12.981Z,60.70
2022-12-20T21:24:41.249Z,60.70
2022-12-20T21:27:10.822Z,60.70
2022-12-20T21:29:38.939Z,60.70
2022-12-20T21:32:07.236Z,60.70
2022-12-20T21:34:35.352Z,60.70
2022-12-20T21:37:03.829Z,60.70
2022-12-20T21:39:31.924Z,60.70
2022-12-20T21:42:02.310Z,60.70
2022-12-20T21:44:32.148Z,60.70
2022-12-20T21:47:00.380Z,60.70
2022-12-20T21:49:28.746Z,60.70
2022-12-20T21:51:56.999Z,60.70
2022-12-20T21:54:25.343Z,60.70
2022-12-20T21:56:53.600Z,60.70
2022-12-20T21:59:21.740Z,60.70
2022-12-20T22:01:51.916Z,60.70
2022-12-20T22:04:20.182Z,60.70
2022-12-20T22:06:48.399Z,60.70
2022-12-20T22:09:17.294Z,60.70
2022-12-20T22:11:48.657Z,60.70
2022-12-20T22:14:17.010Z,60.70
2022-12-20T22:16:45.201Z,60.70
2022-12-20T22:19:15.554Z,60.70
2022-12-20T22:21:43.873Z,60.70
2022-12-20T22:24:12.212Z,60.70
2022-12-20T22:26:41.600Z,60.70
2022-12-20T22:29:10.614Z,60.70
2022-12-20T22:31:38.846Z,60.70
2022-12-20T22:34:07.204Z,60.70
2022-12-20T22:36:37.040Z,60.70
2022-12-20T22:39:05.687Z,60.70
2022-12-20T22:41:35.525Z,60.70
2022-12-20T22:44:04.273Z,60.70
2022-12-20T22:46:32.833Z,60.70
2022-12-20T22:49:01.490Z,60.70
2022-12-20T22:51:31.043Z,60.70
2022-12-20T22:54:01.344Z,60.70
2022-12-20T22:56:29.911Z,60.70
2022-12-20T22:58:58.140Z,60.70
2022-12-20T23:01:26.522Z,60.80
2022-12-20T23:03:54.846Z,60.80
2022-12-20T23:06:23.101Z,60.80
2022-12-20T23:08:51.351Z,60.80
2022-12-20T23:11:40.103Z,60.80
2022-12-20T23:14:30.596Z,60.70
2022-12-20T23:16:59.266Z,60.70
2022-12-20T23:19:27.463Z,60.70
2022-12-20T23:22:12.862Z,60.80
2022-12-20T23:24:41.059Z,60.70
2022-12-20T23:27:10.551Z,60.70
2022-12-20T23:29:38.675Z,60.70
2022-12-20T23:32:06.941Z,61.40
2022-12-20T23:34:35.230Z,60.80
2022-12-20T23:37:03.402Z,60.80
2022-12-20T23:39:31.545Z,60.80
2022-12-20T23:41:59.659Z,60.80
2022-12-20T23:44:29.156Z,60.80
2022-12-20T23:46:57.249Z,60.80
2022-12-20T23:49:25.406Z,60.80
2022-12-20T23:51:53.501Z,60.90
2022-12-20T23:54:21.849Z,60.90
2022-12-20T23:56:50.003Z,60.90
2022-12-20T23:59:18.181Z,60.90
